createdAt,value
2023-04-10T00:00:12.296Z,101690.94
2023-04-10T00:02:39.183Z,101689.56
2023-04-10T00:05:06.924Z,101685.28
2023-04-10T00:07:33.676Z,101691.94
2023-04-10T00:10:00.470Z,101688.28
2023-04-10T00:12:27.279Z,101680.63
2023-04-10T00:14:54.030Z,101679.63
2023-04-10T00:17:20.843Z,101681.44
2023-04-10T00:19:47.671Z,101668.72
2023-04-10T00:22:27.998Z,101673.38
2023-04-10T00:24:54.773Z,101675.19
2023-04-10T00:27:22.834Z,101668.06
2023-04-10T00:29:52.643Z,101669.91
2023-04-10T00:32:22.405Z,101667.22
2023-04-10T00:34:56.693Z,101668.88
2023-04-10T00:37:40.223Z,101661.03
2023-04-10T00:40:07.645Z,101656.06
2023-04-10T00:42:43.012Z,101660.16
2023-04-10T00:45:10.272Z,101654.19
2023-04-10T00:47:58.978Z,101650.91
2023-04-10T00:53:41.720Z,101658.19
2023-04-10T00:56:44.286Z,101658.69
2023-04-10T00:59:24.289Z,101656.88
2023-04-10T01:02:19.032Z,101655.53
2023-04-10T01:04:55.267Z,101656.00
2023-04-10T01:08:18.370Z,101666.91
2023-04-10T01:11:34.094Z,101658.66
2023-04-10T01:17:56.626Z,101656.81
2023-04-10T01:20:35.330Z,101653.63
2023-04-10T01:23:55.152Z,101653.63
2023-04-10T01:27:02.471Z,101657.25
2023-04-10T01:29:32.634Z,101654.63
2023-04-10T01:32:38.990Z,101655.59
2023-04-10T01:35:40.811Z,101651.31
2023-04-10T01:38:43.152Z,101650.22
2023-04-10T01:41:51.067Z,101649.16
2023-04-10T01:44:38.615Z,101649.16
2023-04-10T01:47:14.924Z,101652.97
2023-04-10T01:53:23.436Z,101657.00
2023-04-10T01:59:28.588Z,101647.88
2023-04-10T02:02:07.793Z,101655.09
2023-04-10T02:05:01.123Z,101658.31
2023-04-10T02:08:16.539Z,101658.06
2023-04-10T02:14:23.115Z,101657.25
2023-04-10T02:17:37.239Z,101654.03
2023-04-10T02:20:10.406Z,101653.59
2023-04-10T02:22:44.878Z,101651.19
2023-04-10T02:25:42.419Z,101648.84
2023-04-10T02:28:11.038Z,101647.84
2023-04-10T02:31:12.284Z,101656.44
2023-04-10T02:37:10.076Z,101651.19
2023-04-10T02:40:06.080Z,101655.03
2023-04-10T02:42:45.475Z,101652.78
2023-04-10T02:45:15.129Z,101653.28
2023-04-10T02:48:09.296Z,101653.28
2023-04-10T02:50:36.061Z,101654.53
2023-04-10T02:53:02.885Z,101653.03
2023-04-10T02:55:29.612Z,101654.53
2023-04-10T02:58:08.476Z,101656.72
2023-04-10T03:00:35.266Z,101653.28
2023-04-10T03:03:05.012Z,101651.84
2023-04-10T03:05:33.481Z,101652.69
2023-04-10T03:08:07.097Z,101654.66
2023-04-10T03:10:33.831Z,101660.53
2023-04-10T03:15:44.081Z,101666.19
2023-04-10T03:18:19.414Z,101662.06
2023-04-10T03:20:46.195Z,101662.06
2023-04-10T03:23:12.919Z,101656.63
2023-04-10T03:25:39.662Z,101657.44
2023-04-10T03:28:10.892Z,101654.81
2023-04-10T03:30:37.850Z,101660.78
2023-04-10T03:33:15.121Z,101663.56
2023-04-10T03:36:12.324Z,101666.59
2023-04-10T03:38:45.349Z,101663.69
2023-04-10T03:41:45.134Z,101660.91
2023-04-10T03:44:14.566Z,101668.00
2023-04-10T03:46:47.656Z,101663.41
2023-04-10T03:49:14.432Z,101670.19
2023-04-10T03:54:27.673Z,101678.31
2023-04-10T03:56:54.422Z,101672.91
2023-04-10T03:59:30.988Z,101672.00
2023-04-10T04:02:10.110Z,101677.56
2023-04-10T04:04:37.400Z,101687.81
2023-04-10T04:07:14.650Z,101689.69
2023-04-10T04:09:44.130Z,101684.25
2023-04-10T04:12:14.076Z,101687.75
2023-04-10T04:14:40.880Z,101680.34
2023-04-10T04:17:11.628Z,101678.72
2023-04-10T04:19:38.415Z,101683.56
2023-04-10T04:22:26.859Z,101684.81
2023-04-10T04:24:53.657Z,101688.28
2023-04-10T04:27:20.427Z,101686.97
2023-04-10T04:29:52.718Z,101696.13
2023-04-10T04:32:32.234Z,101697.00
2023-04-10T04:35:02.766Z,101707.53
2023-04-10T04:37:29.546Z,101695.66
2023-04-10T04:39:56.304Z,101703.34
2023-04-10T04:42:23.244Z,101708.38
2023-04-10T04:44:50.113Z,101713.41
2023-04-10T04:47:17.470Z,101710.94
2023-04-10T04:49:47.360Z,101717.09
2023-04-10T04:52:26.715Z,101715.44
2023-04-10T04:54:53.982Z,101725.84
2023-04-10T04:57:27.400Z,101723.56
2023-04-10T04:59:55.578Z,101725.31
2023-04-10T05:02:24.225Z,101730.41
2023-04-10T05:04:51.352Z,101730.41
2023-04-10T05:07:26.273Z,101732.22
2023-04-10T05:09:54.080Z,101730.41
2023-04-10T05:12:23.101Z,101735.81
2023-04-10T05:15:07.692Z,101744.72
2023-04-10T05:17:42.470Z,101744.88
2023-04-10T05:20:09.859Z,101748.44
2023-04-10T05:22:39.669Z,101748.75
2023-04-10T05:25:06.792Z,101754.31
2023-04-10T05:27:36.814Z,101747.69
2023-04-10T05:30:10.928Z,101749.69
2023-04-10T05:32:40.433Z,101752.56
2023-04-10T05:35:13.148Z,101764.84
2023-04-10T05:37:42.720Z,101757.38
2023-04-10T05:40:30.460Z,101764.56
2023-04-10T05:42:57.289Z,101767.38
2023-04-10T05:45:24.077Z,101769.91
2023-04-10T05:48:01.198Z,101770.66
2023-04-10T05:50:31.055Z,101772.91
2023-04-10T05:52:57.996Z,101770.78
2023-04-10T05:55:24.808Z,101778.44
2023-04-10T05:57:54.640Z,101776.88
2023-04-10T06:00:21.465Z,101780.66
2023-04-10T06:02:48.394Z,101790.47
2023-04-10T06:05:15.229Z,101789.44
2023-04-10T06:07:44.516Z,101787.19
2023-04-10T06:10:35.239Z,101791.66
2023-04-10T06:13:02.044Z,101801.06
2023-04-10T06:15:29.074Z,101792.06
2023-04-10T06:17:59.118Z,101798.53
2023-04-10T06:20:28.614Z,101801.19
2023-04-10T06:22:59.109Z,101806.53
2023-04-10T06:25:33.635Z,101804.34
2023-04-10T06:28:12.153Z,101795.16
2023-04-10T06:30:39.332Z,101804.56
2023-04-10T06:33:08.844Z,101802.00
2023-04-10T06:35:35.622Z,101807.03
2023-04-10T06:38:02.386Z,101803.41
2023-04-10T06:40:29.175Z,101806.25
2023-04-10T06:43:01.271Z,101801.72
2023-04-10T06:45:27.934Z,101799.34
2023-04-10T06:47:54.744Z,101805.88
2023-04-10T06:50:33.485Z,101802.09
2023-04-10T06:53:10.724Z,101800.91
2023-04-10T06:55:40.505Z,101801.44
2023-04-10T06:58:16.394Z,101801.59
2023-04-10T07:00:45.777Z,101799.78
2023-04-10T07:03:24.091Z,101813.06
2023-04-10T07:05:53.429Z,101805.28
2023-04-10T07:08:20.257Z,101811.25
2023-04-10T07:10:49.890Z,101792.97
2023-04-10T07:13:24.389Z,101796.56
2023-04-10T07:15:51.219Z,101793.38
2023-04-10T07:18:20.653Z,101802.31
2023-04-10T07:20:51.744Z,101797.69
2023-04-10T07:23:21.055Z,101801.53
2023-04-10T07:25:50.818Z,101800.31
2023-04-10T07:28:21.286Z,101794.47
2023-04-10T07:30:49.572Z,101797.44
2023-04-10T07:33:24.854Z,101802.41
2023-04-10T07:36:06.632Z,101800.66
2023-04-10T07:38:33.433Z,101803.84
2023-04-10T07:41:00.532Z,101807.00
2023-04-10T07:43:34.656Z,101801.28
2023-04-10T07:46:06.763Z,101808.72
2023-04-10T07:48:33.536Z,101804.44
2023-04-10T07:51:00.342Z,101799.34
2023-04-10T07:53:27.050Z,101802.81
2023-04-10T07:55:56.352Z,101796.66
2023-04-10T07:58:23.091Z,101798.25
2023-04-10T08:00:49.824Z,101791.63
2023-04-10T08:03:16.784Z,101791.84
2023-04-10T08:05:43.776Z,101793.16
2023-04-10T08:08:10.534Z,101807.38
2023-04-10T08:10:39.040Z,101811.03
2023-04-10T08:15:51.289Z,101817.25
2023-04-10T08:18:18.068Z,101808.38
2023-04-10T08:20:48.468Z,101813.09
2023-04-10T08:23:20.454Z,101813.38
2023-04-10T08:25:48.010Z,101820.84
2023-04-10T08:28:14.821Z,101823.44
2023-04-10T08:30:42.826Z,101822.25
2023-04-10T08:33:17.702Z,101821.94
2023-04-10T08:38:39.100Z,101829.97
2023-04-10T08:41:06.943Z,101827.47
2023-04-10T08:43:48.930Z,101832.09
2023-04-10T08:46:25.103Z,101828.97
2023-04-10T08:49:07.963Z,101836.66
2023-04-10T08:52:04.896Z,101837.88
2023-04-10T08:54:40.037Z,101834.47
2023-04-10T08:57:21.384Z,101836.38
2023-04-10T08:59:52.266Z,101831.06
2023-04-10T09:02:20.280Z,101831.94
2023-04-10T09:05:04.057Z,101836.72
2023-04-10T09:07:35.512Z,101829.47
2023-04-10T09:10:04.844Z,101833.59
2023-04-10T09:12:44.257Z,101825.78
2023-04-10T09:15:14.256Z,101831.88
2023-04-10T09:18:02.682Z,101818.59
2023-04-10T09:20:38.434Z,101821.44
2023-04-10T09:23:23.871Z,101828.25
2023-04-10T09:25:51.354Z,101821.94
2023-04-10T09:31:00.584Z,101823.03
2023-04-10T09:33:28.183Z,101820.81
2023-04-10T09:35:59.084Z,101814.72
2023-04-10T09:38:25.921Z,101825.31
2023-04-10T09:41:15.842Z,101820.16
2023-04-10T09:43:47.848Z,101819.75
2023-04-10T09:46:26.974Z,101824.59
2023-04-10T09:49:01.989Z,101820.16
2023-04-10T09:51:32.170Z,101821.41
2023-04-10T09:54:00.908Z,101822.06
2023-04-10T09:56:41.797Z,101814.03
2023-04-10T09:59:11.527Z,101818.00
2023-04-10T10:01:52.844Z,101815.22
2023-04-10T10:04:20.177Z,101808.72
2023-04-10T10:06:53.328Z,101810.00
2023-04-10T10:09:21.498Z,101816.41
2023-04-10T10:11:52.804Z,101824.09
2023-04-10T10:14:21.639Z,101812.13
2023-04-10T10:16:52.920Z,101812.34
2023-04-10T10:19:29.603Z,101812.75
2023-04-10T10:21:57.338Z,101808.69
2023-04-10T10:24:27.670Z,101795.34
2023-04-10T10:26:55.782Z,101798.63
2023-04-10T10:29:42.671Z,101799.97
2023-04-10T10:32:14.713Z,101793.78
2023-04-10T10:34:42.852Z,101798.97
2023-04-10T10:37:09.833Z,101797.13
2023-04-10T10:40:07.355Z,101790.38
2023-04-10T10:43:04.076Z,101782.03
2023-04-10T10:45:47.190Z,101784.03
2023-04-10T10:48:14.383Z,101780.41
2023-04-10T10:51:00.720Z,101782.59
2023-04-10T10:53:39.985Z,101775.78
2023-04-10T10:56:21.803Z,101768.63
2023-04-10T10:58:57.328Z,101770.84
2023-04-10T11:01:24.137Z,101758.72
2023-04-10T11:04:03.506Z,101762.88
2023-04-10T11:06:50.466Z,101757.00
2023-04-10T11:10:06.548Z,101758.44
2023-04-10T11:13:14.917Z,101760.59
2023-04-10T11:15:42.578Z,101754.41
2023-04-10T11:18:10.618Z,101755.94
2023-04-10T11:21:21.306Z,101751.66
2023-04-10T11:23:51.307Z,101752.44
2023-04-10T11:26:37.301Z,101745.69
2023-04-10T11:29:29.254Z,101750.56
2023-04-10T11:32:03.702Z,101743.38
2023-04-10T11:34:40.795Z,101741.06
2023-04-10T11:37:07.697Z,101745.00
2023-04-10T11:39:34.469Z,101733.19
2023-04-10T11:42:01.309Z,101734.00
2023-04-10T11:44:41.386Z,101729.22
2023-04-10T11:47:12.921Z,101730.28
2023-04-10T11:49:43.132Z,101738.31
2023-04-10T11:52:23.692Z,101737.09
2023-04-10T11:54:53.169Z,101726.00
2023-04-10T11:57:34.907Z,101724.13
2023-04-10T12:00:03.139Z,101718.19
2023-04-10T12:02:32.464Z,101718.38
2023-04-10T12:05:02.480Z,101712.81
2023-04-10T12:07:30.828Z,101707.66
2023-04-10T12:10:05.093Z,101708.91
2023-04-10T12:12:41.191Z,101710.44
2023-04-10T12:15:36.454Z,101714.94
2023-04-10T12:18:06.732Z,101710.97
2023-04-10T12:20:33.826Z,101706.31
2023-04-10T12:23:01.045Z,101700.22
2023-04-10T12:25:32.931Z,101702.94
2023-04-10T12:28:02.935Z,101692.41
2023-04-10T12:30:34.423Z,101694.69
2023-04-10T12:33:06.837Z,101696.47
2023-04-10T12:35:40.541Z,101688.06
2023-04-10T12:38:10.247Z,101685.22
2023-04-10T12:40:39.261Z,101686.63
2023-04-10T12:43:10.218Z,101682.25
2023-04-10T12:45:46.517Z,101685.72
2023-04-10T12:48:29.395Z,101688.56
2023-04-10T12:51:03.532Z,101677.69
2023-04-10T12:53:31.472Z,101678.34
2023-04-10T12:56:04.267Z,101662.31
2023-04-10T12:58:34.129Z,101657.13
2023-04-10T13:01:09.483Z,101659.75
2023-04-10T13:03:38.125Z,101664.84
2023-04-10T13:06:11.284Z,101668.38
2023-04-10T13:08:41.369Z,101664.06
2023-04-10T13:11:12.745Z,101662.19
2023-04-10T13:13:42.433Z,101659.13
2023-04-10T13:16:14.453Z,101663.75
2023-04-10T13:18:48.743Z,101650.53
2023-04-10T13:21:17.762Z,101652.16
2023-04-10T13:23:44.640Z,101651.31
2023-04-10T13:26:14.864Z,101657.16
2023-04-10T13:28:44.489Z,101656.50
2023-04-10T13:31:25.632Z,101651.50
2023-04-10T13:33:54.186Z,101656.50
2023-04-10T13:36:21.128Z,101642.38
2023-04-10T13:38:51.600Z,101645.94
2023-04-10T13:41:20.687Z,101641.88
2023-04-10T13:43:53.527Z,101636.53
2023-04-10T13:46:20.563Z,101638.06
2023-04-10T13:48:49.822Z,101636.38
2023-04-10T13:51:16.617Z,101635.44
2023-04-10T13:53:43.465Z,101630.28
2023-04-10T13:56:10.264Z,101628.31
2023-04-10T13:58:39.925Z,101628.63
2023-04-10T14:01:11.621Z,101619.13
2023-04-10T14:03:43.258Z,101620.66
2023-04-10T14:06:14.769Z,101615.16
2023-04-10T14:08:47.174Z,101627.00
2023-04-10T14:11:17.202Z,101625.34
2023-04-10T14:13:44.160Z,101626.28
2023-04-10T14:16:11.951Z,101624.41
2023-04-10T14:18:39.893Z,101616.56
2023-04-10T14:21:16.560Z,101625.38
2023-04-10T14:23:45.319Z,101615.31
2023-04-10T14:26:15.312Z,101612.19
2023-04-10T14:28:43.754Z,101616.91
2023-04-10T14:31:10.506Z,101624.41
2023-04-10T14:33:37.274Z,101611.53
2023-04-10T14:36:11.209Z,101611.66
2023-04-10T14:38:38.649Z,101618.72
2023-04-10T14:41:11.512Z,101618.03
2023-04-10T14:43:39.333Z,101610.41
2023-04-10T14:46:06.413Z,101616.38
2023-04-10T14:48:33.243Z,101613.06
2023-04-10T14:51:00.125Z,101602.50
2023-04-10T14:53:35.843Z,101605.16
2023-04-10T14:56:12.377Z,101608.09
2023-04-10T14:58:39.668Z,101601.13
2023-04-10T15:01:10.886Z,101604.06
2023-04-10T15:03:44.383Z,101593.13
2023-04-10T15:06:15.096Z,101591.34
2023-04-10T15:08:45.528Z,101584.19
2023-04-10T15:11:13.341Z,101586.16
2023-04-10T15:13:40.233Z,101586.31
2023-04-10T15:16:07.466Z,101582.94
2023-04-10T15:18:34.297Z,101568.19
2023-04-10T15:21:05.844Z,101574.31
2023-04-10T15:23:32.995Z,101569.50
2023-04-10T15:25:59.804Z,101566.72
2023-04-10T15:28:26.556Z,101561.97
2023-04-10T15:31:14.626Z,101560.53
2023-04-10T15:33:41.478Z,101563.59
2023-04-10T15:36:20.280Z,101556.22
2023-04-10T15:38:50.014Z,101557.16
2023-04-10T15:41:17.162Z,101552.22
2023-04-10T15:43:43.929Z,101553.75
2023-04-10T15:46:31.055Z,101554.06
2023-04-10T15:49:00.254Z,101548.78
2023-04-10T15:51:28.593Z,101558.66
2023-04-10T15:53:59.202Z,101549.69
2023-04-10T15:56:28.676Z,101547.66
2023-04-10T15:59:03.053Z,101550.19
2023-04-10T16:01:45.328Z,101551.72
2023-04-10T16:04:13.938Z,101556.31
2023-04-10T16:06:40.812Z,101560.25
2023-04-10T16:09:22.037Z,101557.22
2023-04-10T16:11:51.982Z,101570.44
2023-04-10T16:14:18.777Z,101567.41
2023-04-10T16:16:46.034Z,101562.22
2023-04-10T16:19:15.949Z,101558.66
2023-04-10T16:21:42.854Z,101561.78
2023-04-10T16:24:12.180Z,101561.72
2023-04-10T16:26:43.970Z,101558.75
2023-04-10T16:29:10.747Z,101557.53
2023-04-10T16:31:40.463Z,101554.53
2023-04-10T16:34:15.040Z,101550.38
2023-04-10T16:36:45.480Z,101553.75
2023-04-10T16:39:12.258Z,101549.44
2023-04-10T16:41:40.297Z,101551.34
2023-04-10T16:44:10.830Z,101552.63
2023-04-10T16:46:44.990Z,101545.19
2023-04-10T16:52:00.165Z,101542.59
2023-04-10T16:54:30.080Z,101536.09
2023-04-10T16:57:03.329Z,101539.63
2023-04-10T16:59:34.807Z,101539.94
2023-04-10T17:02:01.752Z,101537.78
2023-04-10T17:04:31.829Z,101531.56
2023-04-10T17:07:01.599Z,101523.25
2023-04-10T17:09:28.369Z,101534.88
2023-04-10T17:11:58.271Z,101528.09
2023-04-10T17:14:25.102Z,101529.22
2023-04-10T17:16:51.942Z,101534.34
2023-04-10T17:19:21.427Z,101530.25
2023-04-10T17:21:48.179Z,101532.19
2023-04-10T17:24:14.978Z,101534.47
2023-04-10T17:26:41.848Z,101528.88
2023-04-10T17:29:20.157Z,101539.03
2023-04-10T17:31:47.146Z,101536.50
2023-04-10T17:34:23.124Z,101544.19
2023-04-10T17:36:57.191Z,101543.03
2023-04-10T17:39:29.698Z,101533.25
2023-04-10T17:42:02.577Z,101539.56
2023-04-10T17:44:30.182Z,101533.94
2023-04-10T17:46:57.251Z,101533.34
2023-04-10T17:49:24.196Z,101539.81
2023-04-10T17:51:54.025Z,101540.19
2023-04-10T17:54:23.047Z,101532.50
2023-04-10T17:57:01.920Z,101520.88
2023-04-10T17:59:32.591Z,101537.69
2023-04-10T18:02:01.835Z,101525.53
2023-04-10T18:04:35.192Z,101527.06
2023-04-10T18:07:04.655Z,101521.13
2023-04-10T18:09:38.476Z,101521.94
2023-04-10T18:12:20.782Z,101525.53
2023-04-10T18:15:00.980Z,101532.94
2023-04-10T18:17:27.750Z,101522.16
2023-04-10T18:19:57.497Z,101523.53
2023-04-10T18:22:24.303Z,101529.03
2023-04-10T18:24:53.834Z,101523.38
2023-04-10T18:27:24.426Z,101522.97
2023-04-10T18:29:51.904Z,101525.09
2023-04-10T18:32:18.716Z,101520.13
2023-04-10T18:34:45.577Z,101530.47
2023-04-10T18:37:12.303Z,101517.72
2023-04-10T18:39:41.943Z,101514.28
2023-04-10T18:42:09.661Z,101514.22
2023-04-10T18:44:39.605Z,101516.25
2023-04-10T18:47:09.579Z,101520.34
2023-04-10T18:49:50.581Z,101526.19
2023-04-10T18:52:17.375Z,101529.19
2023-04-10T18:54:51.057Z,101526.75
2023-04-10T18:57:18.612Z,101533.56
2023-04-10T18:59:45.404Z,101528.09
2023-04-10T19:02:12.385Z,101533.94
2023-04-10T19:04:47.160Z,101531.44
2023-04-10T19:07:15.912Z,101527.19
2023-04-10T19:09:48.889Z,101540.44
2023-04-10T19:12:28.176Z,101541.16
2023-04-10T19:14:56.219Z,101543.38
2023-04-10T19:17:23.291Z,101547.84
2023-04-10T19:19:58.289Z,101545.03
2023-04-10T19:22:30.773Z,101543.72
2023-04-10T19:25:07.224Z,101553.66
2023-04-10T19:27:36.580Z,101554.78
2023-04-10T19:30:03.530Z,101556.53
2023-04-10T19:32:33.255Z,101544.28
2023-04-10T19:35:03.836Z,101549.97
2023-04-10T19:37:38.720Z,101545.19
2023-04-10T19:40:06.369Z,101536.09
2023-04-10T19:42:38.804Z,101538.72
2023-04-10T19:45:11.429Z,101539.22
2023-04-10T19:47:40.772Z,101539.94
2023-04-10T19:50:08.184Z,101536.00
2023-04-10T19:52:43.418Z,101535.19
2023-04-10T19:55:12.502Z,101534.69
2023-04-10T19:57:40.052Z,101530.88
2023-04-10T20:00:08.795Z,101523.13
2023-04-10T20:02:35.849Z,101519.66
2023-04-10T20:05:05.971Z,101517.25
2023-04-10T20:07:32.775Z,101510.78
2023-04-10T20:09:59.555Z,101509.47
2023-04-10T20:12:26.345Z,101510.31
2023-04-10T20:14:58.729Z,101510.63
2023-04-10T20:17:33.771Z,101518.06
2023-04-10T20:20:03.023Z,101531.47
2023-04-10T20:22:36.556Z,101528.84
2023-04-10T20:25:03.464Z,101528.34
2023-04-10T20:27:32.736Z,101525.34
2023-04-10T20:29:59.493Z,101532.50
2023-04-10T20:32:26.247Z,101528.19
2023-04-10T20:34:55.961Z,101524.56
2023-04-10T20:37:24.445Z,101521.94
2023-04-10T20:39:51.344Z,101538.47
2023-04-10T20:42:20.968Z,101533.50
2023-04-10T20:44:47.844Z,101530.03
2023-04-10T20:47:14.632Z,101524.44
2023-04-10T20:49:41.849Z,101528.88
2023-04-10T20:52:08.696Z,101514.53
2023-04-10T20:54:35.421Z,101512.53
2023-04-10T20:57:02.196Z,101510.41
2023-04-10T20:59:35.090Z,101506.56
2023-04-10T21:02:17.536Z,101495.69
2023-04-10T21:04:45.370Z,101495.84
2023-04-10T21:07:12.162Z,101501.47
2023-04-10T21:09:39.497Z,101503.78
2023-04-10T21:12:09.323Z,101512.22
2023-04-10T21:14:36.108Z,101501.50
2023-04-10T21:17:04.749Z,101500.31
2023-04-10T21:19:35.798Z,101502.47
2023-04-10T21:22:05.949Z,101503.31
2023-04-10T21:27:15.908Z,101498.03
2023-04-10T21:29:50.713Z,101479.84
2023-04-10T21:32:21.035Z,101492.75
2023-04-10T21:34:47.915Z,101493.22
2023-04-10T21:37:19.436Z,101506.75
2023-04-10T21:39:53.693Z,101498.34
2023-04-10T21:42:30.664Z,101495.88
2023-04-10T21:45:00.583Z,101503.94
2023-04-10T21:47:31.647Z,101507.22
2023-04-10T21:50:03.751Z,101511.97
2023-04-10T21:52:33.317Z,101525.47
2023-04-10T21:55:09.698Z,101518.59
2023-04-10T21:57:36.643Z,101523.03
2023-04-10T22:00:08.799Z,101527.31
2023-04-10T22:02:36.104Z,101519.75
2023-04-10T22:05:02.970Z,101519.91
2023-04-10T22:07:34.565Z,101528.00
2023-04-10T22:10:08.186Z,101527.00
2023-04-10T22:12:34.996Z,101525.19
2023-04-10T22:15:13.440Z,101517.78
2023-04-10T22:17:40.257Z,101513.81
2023-04-10T22:20:10.556Z,101521.44
2023-04-10T22:22:40.144Z,101526.03
2023-04-10T22:25:07.190Z,101519.09
2023-04-10T22:27:36.883Z,101519.41
2023-04-10T22:30:07.589Z,101516.78
2023-04-10T22:32:40.736Z,101505.56
2023-04-10T22:35:21.085Z,101500.28
2023-04-10T22:37:48.995Z,101497.47
2023-04-10T22:40:24.941Z,101500.28
2023-04-10T22:42:51.756Z,101493.50
2023-04-10T22:45:18.493Z,101483.59
2023-04-10T22:47:45.310Z,101472.38
2023-04-10T22:50:16.999Z,101472.22
2023-04-10T22:52:58.917Z,101477.66
2023-04-10T22:55:30.412Z,101476.66
2023-04-10T22:57:59.834Z,101483.75
2023-04-10T23:00:34.239Z,101483.28
2023-04-10T23:03:03.437Z,101480.44
2023-04-10T23:05:32.587Z,101486.69
2023-04-10T23:08:02.457Z,101499.06
2023-04-10T23:10:43.851Z,101501.56
2023-04-10T23:13:17.226Z,101511.63
2023-04-10T23:16:11.721Z,101502.06
2023-04-10T23:18:44.355Z,101497.44
2023-04-10T23:21:14.130Z,101498.22
2023-04-10T23:23:40.874Z,101500.16
2023-04-10T23:26:10.688Z,101502.13
2023-04-10T23:28:45.376Z,101500.44
2023-04-10T23:31:15.183Z,101496.78
2023-04-10T23:33:45.857Z,101502.44
2023-04-10T23:36:12.596Z,101506.09
2023-04-10T23:38:39.322Z,101501.47
2023-04-10T23:41:10.176Z,101496.50
2023-04-10T23:43:46.419Z,101492.19
2023-04-10T23:46:18.917Z,101479.69
2023-04-10T23:48:48.668Z,101484.13
2023-04-10T23:51:17.012Z,101478.22
2023-04-10T23:53:49.516Z,101473.41
2023-04-10T23:56:16.240Z,101473.59
2023-04-10T23:58:43.014Z,101467.69
